Terminal Aerodrome Forecast
Issued by NWS

Home | Current Version | Previous Version | Text Only | Print | Product List | Glossary On
Versions: 1 2 3 4 5 6 7 8 9 10 11 12 13 14 15 16 17
000
FTUS43 KDLH 152300
TAFHIB
TAF
KHIB 152326Z 1600/1624 19009KT P6SM BKN250
     FM160900 20007KT P6SM VCSH OVC060
     FM161500 25007KT P6SM OVC045=

USA.gov is the U.S. government's official web portal to all federal, state and local government web resources and services.